sensor_id;sensor_type;location;lat;lon;timestamp;temperature;humidity
32698;DHT22;19087;51.062;3.754;2022-11-02T00:01:18;13.20;99.90
32698;DHT22;19087;51.062;3.754;2022-11-02T00:03:46;13.20;99.90
32698;DHT22;19087;51.062;3.754;2022-11-02T00:06:12;13.20;99.90
32698;DHT22;19087;51.062;3.754;2022-11-02T00:08:38;13.00;99.90
32698;DHT22;19087;51.062;3.754;2022-11-02T00:11:03;12.90;99.90
32698;DHT22;19087;51.062;3.754;2022-11-02T00:13:29;13.00;99.90
32698;DHT22;19087;51.062;3.754;2022-11-02T00:15:55;13.10;99.90
32698;DHT22;19087;51.062;3.754;2022-11-02T00:18:21;13.10;99.90
32698;DHT22;19087;51.062;3.754;2022-11-02T00:20:46;13.20;99.90
32698;DHT22;19087;51.062;3.754;2022-11-02T00:23:12;13.20;99.90
32698;DHT22;19087;51.062;3.754;2022-11-02T00:25:39;13.30;99.90
32698;DHT22;19087;51.062;3.754;2022-11-02T00:28:06;13.20;99.90
32698;DHT22;19087;51.062;3.754;2022-11-02T00:30:32;13.10;99.90
32698;DHT22;19087;51.062;3.754;2022-11-02T00:32:57;13.00;99.90
32698;DHT22;19087;51.062;3.754;2022-11-02T00:35:23;13.10;99.90
32698;DHT22;19087;51.062;3.754;2022-11-02T00:37:48;13.00;99.90
32698;DHT22;19087;51.062;3.754;2022-11-02T00:40:15;13.10;99.90
32698;DHT22;19087;51.062;3.754;2022-11-02T00:42:41;13.30;99.90
32698;DHT22;19087;51.062;3.754;2022-11-02T00:45:07;13.30;99.90
32698;DHT22;19087;51.062;3.754;2022-11-02T00:47:32;13.20;99.90
32698;DHT22;19087;51.062;3.754;2022-11-02T00:49:58;13.20;99.90
32698;DHT22;19087;51.062;3.754;2022-11-02T00:52:24;13.20;99.90
32698;DHT22;19087;51.062;3.754;2022-11-02T00:54:49;13.20;99.90
32698;DHT22;19087;51.062;3.754;2022-11-02T00:57:15;13.20;99.90
32698;DHT22;19087;51.062;3.754;2022-11-02T00:59:42;13.20;99.90
32698;DHT22;19087;51.062;3.754;2022-11-02T01:02:08;13.20;99.90
32698;DHT22;19087;51.062;3.754;2022-11-02T01:04:34;13.10;99.90
32698;DHT22;19087;51.062;3.754;2022-11-02T01:07:01;13.20;99.90
32698;DHT22;19087;51.062;3.754;2022-11-02T01:09:27;13.10;99.90
32698;DHT22;19087;51.062;3.754;2022-11-02T01:11:53;13.00;99.90
32698;DHT22;19087;51.062;3.754;2022-11-02T01:14:19;13.10;99.90
32698;DHT22;19087;51.062;3.754;2022-11-02T01:16:45;13.20;99.90
32698;DHT22;19087;51.062;3.754;2022-11-02T01:19:10;13.10;99.90
32698;DHT22;19087;51.062;3.754;2022-11-02T01:21:36;13.00;99.90
32698;DHT22;19087;51.062;3.754;2022-11-02T01:24:01;13.00;99.90
32698;DHT22;19087;51.062;3.754;2022-11-02T01:26:27;12.90;99.90
32698;DHT22;19087;51.062;3.754;2022-11-02T01:28:53;12.90;99.90
32698;DHT22;19087;51.062;3.754;2022-11-02T01:31:19;12.80;99.90
32698;DHT22;19087;51.062;3.754;2022-11-02T01:33:45;12.70;99.90
32698;DHT22;19087;51.062;3.754;2022-11-02T01:36:11;12.60;99.90
32698;DHT22;19087;51.062;3.754;2022-11-02T01:38:37;12.50;99.90
32698;DHT22;19087;51.062;3.754;2022-11-02T01:41:03;12.50;99.90
32698;DHT22;19087;51.062;3.754;2022-11-02T01:43:31;12.60;99.90
32698;DHT22;19087;51.062;3.754;2022-11-02T01:46:01;12.50;99.90
32698;DHT22;19087;51.062;3.754;2022-11-02T01:48:31;12.60;99.90
32698;DHT22;19087;51.062;3.754;2022-11-02T01:50:58;12.60;99.90
32698;DHT22;19087;51.062;3.754;2022-11-02T01:53:25;12.40;99.90
32698;DHT22;19087;51.062;3.754;2022-11-02T01:55:51;12.50;99.90
32698;DHT22;19087;51.062;3.754;2022-11-02T01:58:16;12.40;99.90
32698;DHT22;19087;51.062;3.754;2022-11-02T02:00:42;12.40;99.90
32698;DHT22;19087;51.062;3.754;2022-11-02T02:05:35;12.40;99.90
32698;DHT22;19087;51.062;3.754;2022-11-02T02:08:03;12.30;99.90
32698;DHT22;19087;51.062;3.754;2022-11-02T02:10:28;12.30;99.90
32698;DHT22;19087;51.062;3.754;2022-11-02T02:12:54;12.20;99.90
32698;DHT22;19087;51.062;3.754;2022-11-02T02:15:21;12.20;99.90
32698;DHT22;19087;51.062;3.754;2022-11-02T02:17:50;12.20;99.90
32698;DHT22;19087;51.062;3.754;2022-11-02T02:28:05;12.50;99.90
32698;DHT22;19087;51.062;3.754;2022-11-02T02:30:37;12.50;99.90
32698;DHT22;19087;51.062;3.754;2022-11-02T02:33:06;12.50;99.90
32698;DHT22;19087;51.062;3.754;2022-11-02T02:35:42;12.40;99.90
32698;DHT22;19087;51.062;3.754;2022-11-02T02:38:29;12.30;99.90
32698;DHT22;19087;51.062;3.754;2022-11-02T02:40:58;12.30;99.90
32698;DHT22;19087;51.062;3.754;2022-11-02T02:43:36;12.50;99.90
32698;DHT22;19087;51.062;3.754;2022-11-02T02:46:14;12.50;99.90
32698;DHT22;19087;51.062;3.754;2022-11-02T02:48:43;12.60;99.90
32698;DHT22;19087;51.062;3.754;2022-11-02T02:51:11;12.40;99.90
32698;DHT22;19087;51.062;3.754;2022-11-02T02:53:52;12.50;99.90
32698;DHT22;19087;51.062;3.754;2022-11-02T02:56:20;12.70;99.90
32698;DHT22;19087;51.062;3.754;2022-11-02T02:58:52;12.60;99.90
32698;DHT22;19087;51.062;3.754;2022-11-02T03:01:22;12.60;99.90
32698;DHT22;19087;51.062;3.754;2022-11-02T03:03:49;12.60;99.90
32698;DHT22;19087;51.062;3.754;2022-11-02T03:08:53;12.70;99.90
32698;DHT22;19087;51.062;3.754;2022-11-02T03:11:22;12.80;99.90
32698;DHT22;19087;51.062;3.754;2022-11-02T03:16:27;12.90;99.90
32698;DHT22;19087;51.062;3.754;2022-11-02T03:21:43;12.60;99.90
32698;DHT22;19087;51.062;3.754;2022-11-02T03:29:27;12.40;99.90
32698;DHT22;19087;51.062;3.754;2022-11-02T03:31:55;12.40;99.90
32698;DHT22;19087;51.062;3.754;2022-11-02T03:34:27;12.40;99.90
32698;DHT22;19087;51.062;3.754;2022-11-02T03:37:01;12.30;99.90
32698;DHT22;19087;51.062;3.754;2022-11-02T03:39:36;12.10;99.90
32698;DHT22;19087;51.062;3.754;2022-11-02T03:42:03;12.10;99.90
32698;DHT22;19087;51.062;3.754;2022-11-02T03:44:29;12.20;99.90
32698;DHT22;19087;51.062;3.754;2022-11-02T03:46:56;12.30;99.90
32698;DHT22;19087;51.062;3.754;2022-11-02T03:49:23;12.30;99.90
32698;DHT22;19087;51.062;3.754;2022-11-02T03:51:50;12.30;99.90
32698;DHT22;19087;51.062;3.754;2022-11-02T03:54:19;12.30;99.90
32698;DHT22;19087;51.062;3.754;2022-11-02T03:56:48;12.30;99.90
32698;DHT22;19087;51.062;3.754;2022-11-02T03:59:14;12.20;99.90
32698;DHT22;19087;51.062;3.754;2022-11-02T04:01:41;12.10;99.90
32698;DHT22;19087;51.062;3.754;2022-11-02T04:04:08;12.10;99.90
32698;DHT22;19087;51.062;3.754;2022-11-02T04:06:35;12.20;99.90
32698;DHT22;19087;51.062;3.754;2022-11-02T04:09:00;12.00;99.90
32698;DHT22;19087;51.062;3.754;2022-11-02T04:11:27;11.90;99.90
32698;DHT22;19087;51.062;3.754;2022-11-02T04:14:11;12.00;99.90
32698;DHT22;19087;51.062;3.754;2022-11-02T04:16:56;11.90;99.90
32698;DHT22;19087;51.062;3.754;2022-11-02T04:19:40;12.00;99.90
32698;DHT22;19087;51.062;3.754;2022-11-02T04:22:06;11.90;99.90
32698;DHT22;19087;51.062;3.754;2022-11-02T04:24:50;11.90;99.90
32698;DHT22;19087;51.062;3.754;2022-11-02T04:27:34;11.90;99.90
32698;DHT22;19087;51.062;3.754;2022-11-02T04:30:00;12.00;99.90
32698;DHT22;19087;51.062;3.754;2022-11-02T04:32:25;12.00;99.90
32698;DHT22;19087;51.062;3.754;2022-11-02T04:35:09;12.10;99.90
32698;DHT22;19087;51.062;3.754;2022-11-02T04:37:44;12.00;99.90
32698;DHT22;19087;51.062;3.754;2022-11-02T04:40:28;11.80;99.90
32698;DHT22;19087;51.062;3.754;2022-11-02T04:42:54;11.80;99.90
32698;DHT22;19087;51.062;3.754;2022-11-02T04:45:19;11.80;99.90
32698;DHT22;19087;51.062;3.754;2022-11-02T04:47:45;11.90;99.90
32698;DHT22;19087;51.062;3.754;2022-11-02T04:50:11;11.90;99.90
32698;DHT22;19087;51.062;3.754;2022-11-02T04:52:37;11.90;99.90
32698;DHT22;19087;51.062;3.754;2022-11-02T04:55:03;11.90;99.90
32698;DHT22;19087;51.062;3.754;2022-11-02T04:57:28;11.80;99.90
32698;DHT22;19087;51.062;3.754;2022-11-02T04:59:54;11.80;99.90
32698;DHT22;19087;51.062;3.754;2022-11-02T05:02:19;11.80;99.90
32698;DHT22;19087;51.062;3.754;2022-11-02T05:04:45;11.80;99.90
32698;DHT22;19087;51.062;3.754;2022-11-02T05:07:11;11.80;99.90
32698;DHT22;19087;51.062;3.754;2022-11-02T05:09:36;11.80;99.90
32698;DHT22;19087;51.062;3.754;2022-11-02T05:12:02;11.60;99.90
32698;DHT22;19087;51.062;3.754;2022-11-02T05:14:30;11.50;99.90
32698;DHT22;19087;51.062;3.754;2022-11-02T05:16:56;11.50;99.90
32698;DHT22;19087;51.062;3.754;2022-11-02T05:19:24;11.50;99.90
32698;DHT22;19087;51.062;3.754;2022-11-02T05:21:50;11.40;99.90
32698;DHT22;19087;51.062;3.754;2022-11-02T05:24:15;11.40;99.90
32698;DHT22;19087;51.062;3.754;2022-11-02T05:26:42;11.40;99.90
32698;DHT22;19087;51.062;3.754;2022-11-02T05:29:08;11.30;99.90
32698;DHT22;19087;51.062;3.754;2022-11-02T05:31:33;11.20;99.90
32698;DHT22;19087;51.062;3.754;2022-11-02T05:34:01;11.40;99.90
32698;DHT22;19087;51.062;3.754;2022-11-02T05:36:27;11.40;99.90
32698;DHT22;19087;51.062;3.754;2022-11-02T05:38:53;11.40;99.90
32698;DHT22;19087;51.062;3.754;2022-11-02T05:41:18;11.30;99.90
32698;DHT22;19087;51.062;3.754;2022-11-02T05:43:44;11.20;99.90
32698;DHT22;19087;51.062;3.754;2022-11-02T05:46:10;11.10;99.90
32698;DHT22;19087;51.062;3.754;2022-11-02T05:48:35;11.20;99.90
32698;DHT22;19087;51.062;3.754;2022-11-02T05:51:02;11.10;99.90
32698;DHT22;19087;51.062;3.754;2022-11-02T05:53:28;11.00;99.90
32698;DHT22;19087;51.062;3.754;2022-11-02T05:55:59;11.00;99.90
32698;DHT22;19087;51.062;3.754;2022-11-02T05:58:25;11.00;99.90
32698;DHT22;19087;51.062;3.754;2022-11-02T06:00:50;11.00;99.90
32698;DHT22;19087;51.062;3.754;2022-11-02T06:03:16;11.00;99.90
32698;DHT22;19087;51.062;3.754;2022-11-02T06:05:42;10.90;99.90
32698;DHT22;19087;51.062;3.754;2022-11-02T06:08:09;10.90;99.90
32698;DHT22;19087;51.062;3.754;2022-11-02T06:10:34;10.80;99.90
32698;DHT22;19087;51.062;3.754;2022-11-02T06:13:01;10.90;99.90
32698;DHT22;19087;51.062;3.754;2022-11-02T06:15:27;10.80;99.90
32698;DHT22;19087;51.062;3.754;2022-11-02T06:17:54;10.70;99.90
32698;DHT22;19087;51.062;3.754;2022-11-02T06:20:20;10.90;99.90
32698;DHT22;19087;51.062;3.754;2022-11-02T06:22:46;11.00;99.90
32698;DHT22;19087;51.062;3.754;2022-11-02T06:25:12;11.00;99.90
32698;DHT22;19087;51.062;3.754;2022-11-02T06:27:38;11.10;99.90
32698;DHT22;19087;51.062;3.754;2022-11-02T06:30:04;11.00;99.90
32698;DHT22;19087;51.062;3.754;2022-11-02T06:32:30;10.80;99.90
32698;DHT22;19087;51.062;3.754;2022-11-02T06:34:55;10.70;99.90
32698;DHT22;19087;51.062;3.754;2022-11-02T06:37:21;10.70;99.90
32698;DHT22;19087;51.062;3.754;2022-11-02T06:39:47;10.70;99.90
32698;DHT22;19087;51.062;3.754;2022-11-02T06:42:13;10.80;99.90
32698;DHT22;19087;51.062;3.754;2022-11-02T06:44:39;10.80;99.90
32698;DHT22;19087;51.062;3.754;2022-11-02T06:47:05;10.80;99.90
32698;DHT22;19087;51.062;3.754;2022-11-02T06:49:31;10.60;99.90
32698;DHT22;19087;51.062;3.754;2022-11-02T06:51:57;10.50;99.90
32698;DHT22;19087;51.062;3.754;2022-11-02T06:54:22;10.50;99.90
32698;DHT22;19087;51.062;3.754;2022-11-02T06:56:48;10.40;99.90
32698;DHT22;19087;51.062;3.754;2022-11-02T06:59:14;10.40;99.90
32698;DHT22;19087;51.062;3.754;2022-11-02T07:01:39;10.40;99.90
32698;DHT22;19087;51.062;3.754;2022-11-02T07:04:05;10.40;99.90
32698;DHT22;19087;51.062;3.754;2022-11-02T07:06:30;10.50;99.90
32698;DHT22;19087;51.062;3.754;2022-11-02T07:08:56;10.50;99.90
32698;DHT22;19087;51.062;3.754;2022-11-02T07:11:21;10.60;99.90
32698;DHT22;19087;51.062;3.754;2022-11-02T07:13:48;10.60;99.90
32698;DHT22;19087;51.062;3.754;2022-11-02T07:16:13;10.60;99.90
32698;DHT22;19087;51.062;3.754;2022-11-02T07:18:39;10.60;99.90
32698;DHT22;19087;51.062;3.754;2022-11-02T07:21:05;10.70;99.90
32698;DHT22;19087;51.062;3.754;2022-11-02T07:23:31;10.80;99.90
32698;DHT22;19087;51.062;3.754;2022-11-02T07:25:57;10.90;99.90
32698;DHT22;19087;51.062;3.754;2022-11-02T07:28:25;10.90;99.90
32698;DHT22;19087;51.062;3.754;2022-11-02T07:30:52;11.00;99.90
32698;DHT22;19087;51.062;3.754;2022-11-02T07:33:18;10.90;99.90
32698;DHT22;19087;51.062;3.754;2022-11-02T07:35:43;10.90;99.90
32698;DHT22;19087;51.062;3.754;2022-11-02T07:38:09;10.90;99.90
32698;DHT22;19087;51.062;3.754;2022-11-02T07:40:35;10.90;99.90
32698;DHT22;19087;51.062;3.754;2022-11-02T07:43:01;11.00;99.90
32698;DHT22;19087;51.062;3.754;2022-11-02T07:45:26;11.20;99.90
32698;DHT22;19087;51.062;3.754;2022-11-02T07:47:53;11.40;99.90
32698;DHT22;19087;51.062;3.754;2022-11-02T07:50:20;11.50;99.90
32698;DHT22;19087;51.062;3.754;2022-11-02T07:52:49;11.60;99.90
32698;DHT22;19087;51.062;3.754;2022-11-02T07:55:16;11.50;99.90
32698;DHT22;19087;51.062;3.754;2022-11-02T07:57:42;11.50;99.90
32698;DHT22;19087;51.062;3.754;2022-11-02T08:00:16;11.50;99.90
32698;DHT22;19087;51.062;3.754;2022-11-02T08:02:42;11.40;99.90
32698;DHT22;19087;51.062;3.754;2022-11-02T08:05:07;11.30;99.90
32698;DHT22;19087;51.062;3.754;2022-11-02T08:07:34;11.20;99.90
32698;DHT22;19087;51.062;3.754;2022-11-02T08:10:01;11.20;99.90
32698;DHT22;19087;51.062;3.754;2022-11-02T08:12:28;11.20;99.90
32698;DHT22;19087;51.062;3.754;2022-11-02T08:14:54;11.20;99.90
32698;DHT22;19087;51.062;3.754;2022-11-02T08:17:21;11.30;99.90
32698;DHT22;19087;51.062;3.754;2022-11-02T08:19:47;11.30;99.90
32698;DHT22;19087;51.062;3.754;2022-11-02T08:22:12;11.20;99.90
32698;DHT22;19087;51.062;3.754;2022-11-02T08:24:38;11.40;99.90
32698;DHT22;19087;51.062;3.754;2022-11-02T08:27:03;11.40;99.90
32698;DHT22;19087;51.062;3.754;2022-11-02T08:29:30;11.50;99.90
32698;DHT22;19087;51.062;3.754;2022-11-02T08:31:56;11.50;99.90
32698;DHT22;19087;51.062;3.754;2022-11-02T08:34:22;11.70;99.90
32698;DHT22;19087;51.062;3.754;2022-11-02T08:36:48;11.70;99.90
32698;DHT22;19087;51.062;3.754;2022-11-02T08:39:13;11.80;99.90
32698;DHT22;19087;51.062;3.754;2022-11-02T08:41:39;11.70;99.90
32698;DHT22;19087;51.062;3.754;2022-11-02T08:44:04;11.60;99.90
32698;DHT22;19087;51.062;3.754;2022-11-02T08:46:30;11.60;99.90
32698;DHT22;19087;51.062;3.754;2022-11-02T08:48:56;11.70;99.90
32698;DHT22;19087;51.062;3.754;2022-11-02T08:51:22;12.00;99.90
32698;DHT22;19087;51.062;3.754;2022-11-02T08:53:47;11.90;99.90
32698;DHT22;19087;51.062;3.754;2022-11-02T08:56:13;11.90;99.90
32698;DHT22;19087;51.062;3.754;2022-11-02T08:58:38;11.90;99.90
32698;DHT22;19087;51.062;3.754;2022-11-02T09:01:04;11.90;99.90
32698;DHT22;19087;51.062;3.754;2022-11-02T09:03:29;11.90;99.90
32698;DHT22;19087;51.062;3.754;2022-11-02T09:05:58;12.00;99.90
32698;DHT22;19087;51.062;3.754;2022-11-02T09:08:26;12.00;99.90
32698;DHT22;19087;51.062;3.754;2022-11-02T09:10:56;12.00;99.90
32698;DHT22;19087;51.062;3.754;2022-11-02T09:13:25;12.00;99.90
32698;DHT22;19087;51.062;3.754;2022-11-02T09:15:52;12.00;99.90
32698;DHT22;19087;51.062;3.754;2022-11-02T09:18:18;12.10;99.90
32698;DHT22;19087;51.062;3.754;2022-11-02T09:20:44;12.10;99.90
32698;DHT22;19087;51.062;3.754;2022-11-02T09:23:18;12.10;99.90
32698;DHT22;19087;51.062;3.754;2022-11-02T09:25:43;12.20;99.90
32698;DHT22;19087;51.062;3.754;2022-11-02T09:28:09;12.20;99.90
32698;DHT22;19087;51.062;3.754;2022-11-02T09:30:36;12.20;99.90
32698;DHT22;19087;51.062;3.754;2022-11-02T09:33:02;12.30;99.90
32698;DHT22;19087;51.062;3.754;2022-11-02T09:37:57;12.50;99.90
32698;DHT22;19087;51.062;3.754;2022-11-02T09:40:24;12.50;99.90
32698;DHT22;19087;51.062;3.754;2022-11-02T09:45:45;12.70;99.90
32698;DHT22;19087;51.062;3.754;2022-11-02T09:48:26;12.70;99.90
32698;DHT22;19087;51.062;3.754;2022-11-02T09:51:03;13.00;99.90
32698;DHT22;19087;51.062;3.754;2022-11-02T09:53:47;13.00;99.90
32698;DHT22;19087;51.062;3.754;2022-11-02T09:56:15;13.00;99.90
32698;DHT22;19087;51.062;3.754;2022-11-02T09:58:44;13.00;99.90
32698;DHT22;19087;51.062;3.754;2022-11-02T10:01:18;13.00;99.90
32698;DHT22;19087;51.062;3.754;2022-11-02T10:06:18;12.90;99.90
32698;DHT22;19087;51.062;3.754;2022-11-02T10:14:13;13.00;99.90
32698;DHT22;19087;51.062;3.754;2022-11-02T10:19:25;13.50;99.90
32698;DHT22;19087;51.062;3.754;2022-11-02T10:21:54;13.60;99.90
32698;DHT22;19087;51.062;3.754;2022-11-02T10:24:22;13.80;99.90
32698;DHT22;19087;51.062;3.754;2022-11-02T10:26:48;13.80;99.90
32698;DHT22;19087;51.062;3.754;2022-11-02T10:29:51;13.70;99.90
32698;DHT22;19087;51.062;3.754;2022-11-02T10:32:10;13.70;99.90
32698;DHT22;19087;51.062;3.754;2022-11-02T10:34:36;13.90;99.90
32698;DHT22;19087;51.062;3.754;2022-11-02T10:42:09;13.90;99.90
32698;DHT22;19087;51.062;3.754;2022-11-02T10:44:51;14.10;99.90
32698;DHT22;19087;51.062;3.754;2022-11-02T10:47:23;14.00;99.90
32698;DHT22;19087;51.062;3.754;2022-11-02T10:52:35;13.60;99.90
32698;DHT22;19087;51.062;3.754;2022-11-02T10:55:02;13.70;99.90
32698;DHT22;19087;51.062;3.754;2022-11-02T10:57:28;13.80;99.90
32698;DHT22;19087;51.062;3.754;2022-11-02T11:02:39;14.20;99.90
32698;DHT22;19087;51.062;3.754;2022-11-02T11:05:18;14.20;99.90
32698;DHT22;19087;51.062;3.754;2022-11-02T11:07:43;14.30;99.90
32698;DHT22;19087;51.062;3.754;2022-11-02T11:10:17;14.10;99.90
32698;DHT22;19087;51.062;3.754;2022-11-02T11:12:42;14.20;99.90
32698;DHT22;19087;51.062;3.754;2022-11-02T11:15:19;14.40;99.90
32698;DHT22;19087;51.062;3.754;2022-11-02T11:17:46;14.70;99.90
32698;DHT22;19087;51.062;3.754;2022-11-02T11:23:36;14.70;99.90
32698;DHT22;19087;51.062;3.754;2022-11-02T11:25:40;14.60;99.90
32698;DHT22;19087;51.062;3.754;2022-11-02T11:33:55;14.50;99.90
32698;DHT22;19087;51.062;3.754;2022-11-02T11:38:48;14.60;99.90
32698;DHT22;19087;51.062;3.754;2022-11-02T11:41:14;14.60;99.90
32698;DHT22;19087;51.062;3.754;2022-11-02T11:43:42;14.70;99.90
32698;DHT22;19087;51.062;3.754;2022-11-02T11:46:10;14.70;99.90
32698;DHT22;19087;51.062;3.754;2022-11-02T11:56:37;14.90;99.90
32698;DHT22;19087;51.062;3.754;2022-11-02T11:59:03;15.00;99.90
32698;DHT22;19087;51.062;3.754;2022-11-02T12:01:39;15.00;99.90
32698;DHT22;19087;51.062;3.754;2022-11-02T12:04:05;15.00;99.90
32698;DHT22;19087;51.062;3.754;2022-11-02T12:09:16;14.90;99.90
32698;DHT22;19087;51.062;3.754;2022-11-02T12:19:58;14.80;99.90
32698;DHT22;19087;51.062;3.754;2022-11-02T12:25:17;14.90;99.90
32698;DHT22;19087;51.062;3.754;2022-11-02T12:30:26;15.10;99.90
32698;DHT22;19087;51.062;3.754;2022-11-02T12:33:00;15.10;99.90
32698;DHT22;19087;51.062;3.754;2022-11-02T12:35:40;15.10;99.90
32698;DHT22;19087;51.062;3.754;2022-11-02T12:40:58;15.40;99.90
32698;DHT22;19087;51.062;3.754;2022-11-02T12:43:37;15.50;99.90
32698;DHT22;19087;51.062;3.754;2022-11-02T12:55:59;15.30;99.90
32698;DHT22;19087;51.062;3.754;2022-11-02T12:58:29;15.40;99.90
32698;DHT22;19087;51.062;3.754;2022-11-02T13:01:04;15.40;99.90
32698;DHT22;19087;51.062;3.754;2022-11-02T13:03:37;15.30;99.90
32698;DHT22;19087;51.062;3.754;2022-11-02T13:06:08;15.40;99.90
32698;DHT22;19087;51.062;3.754;2022-11-02T13:08:37;15.30;99.90
32698;DHT22;19087;51.062;3.754;2022-11-02T13:11:05;15.50;99.90
32698;DHT22;19087;51.062;3.754;2022-11-02T13:13:40;15.60;99.90
32698;DHT22;19087;51.062;3.754;2022-11-02T13:16:06;15.60;99.90
32698;DHT22;19087;51.062;3.754;2022-11-02T13:18:39;15.50;99.90
32698;DHT22;19087;51.062;3.754;2022-11-02T13:21:06;15.50;99.90
32698;DHT22;19087;51.062;3.754;2022-11-02T13:26:40;15.40;99.90
32698;DHT22;19087;51.062;3.754;2022-11-02T13:31:39;15.50;99.90
32698;DHT22;19087;51.062;3.754;2022-11-02T13:34:08;15.70;99.90
32698;DHT22;19087;51.062;3.754;2022-11-02T13:36:36;15.70;99.90
32698;DHT22;19087;51.062;3.754;2022-11-02T13:39:03;15.90;99.90
32698;DHT22;19087;51.062;3.754;2022-11-02T13:49:30;16.30;99.90
32698;DHT22;19087;51.062;3.754;2022-11-02T13:51:59;16.10;99.90
32698;DHT22;19087;51.062;3.754;2022-11-02T13:54:34;16.00;99.90
32698;DHT22;19087;51.062;3.754;2022-11-02T13:57:00;15.90;99.90
32698;DHT22;19087;51.062;3.754;2022-11-02T13:59:43;15.80;99.90
32698;DHT22;19087;51.062;3.754;2022-11-02T14:02:11;15.90;99.90
32698;DHT22;19087;51.062;3.754;2022-11-02T14:04:39;15.70;99.90
32698;DHT22;19087;51.062;3.754;2022-11-02T14:07:08;15.70;99.90
32698;DHT22;19087;51.062;3.754;2022-11-02T14:09:40;15.70;99.90
32698;DHT22;19087;51.062;3.754;2022-11-02T14:14:42;15.70;99.90
32698;DHT22;19087;51.062;3.754;2022-11-02T14:22:12;15.50;99.90
32698;DHT22;19087;51.062;3.754;2022-11-02T14:32:04;15.20;99.90
32698;DHT22;19087;51.062;3.754;2022-11-02T14:34:37;15.20;99.90
32698;DHT22;19087;51.062;3.754;2022-11-02T14:39:53;15.10;99.90
32698;DHT22;19087;51.062;3.754;2022-11-02T14:47:29;15.20;99.90
32698;DHT22;19087;51.062;3.754;2022-11-02T14:50:05;15.10;99.90
32698;DHT22;19087;51.062;3.754;2022-11-02T14:52:33;15.10;99.90
32698;DHT22;19087;51.062;3.754;2022-11-02T14:57:28;15.10;99.90
32698;DHT22;19087;51.062;3.754;2022-11-02T15:00:00;15.10;99.90
32698;DHT22;19087;51.062;3.754;2022-11-02T15:02:27;15.10;99.90
32698;DHT22;19087;51.062;3.754;2022-11-02T15:04:55;15.00;99.90
32698;DHT22;19087;51.062;3.754;2022-11-02T15:07:23;15.10;99.90
32698;DHT22;19087;51.062;3.754;2022-11-02T15:15:00;15.00;99.90
32698;DHT22;19087;51.062;3.754;2022-11-02T15:20:19;15.00;99.90
32698;DHT22;19087;51.062;3.754;2022-11-02T15:22:38;14.90;99.90
32698;DHT22;19087;51.062;3.754;2022-11-02T15:28:11;14.80;99.90
32698;DHT22;19087;51.062;3.754;2022-11-02T15:30:39;14.80;99.90
32698;DHT22;19087;51.062;3.754;2022-11-02T15:33:10;14.80;99.90
32698;DHT22;19087;51.062;3.754;2022-11-02T15:35:39;14.70;99.90
32698;DHT22;19087;51.062;3.754;2022-11-02T15:38:05;14.70;99.90
32698;DHT22;19087;51.062;3.754;2022-11-02T15:40:33;14.60;99.90
32698;DHT22;19087;51.062;3.754;2022-11-02T15:43:12;14.50;99.90
32698;DHT22;19087;51.062;3.754;2022-11-02T15:48:40;14.40;99.90
32698;DHT22;19087;51.062;3.754;2022-11-02T15:53:48;14.30;99.90
32698;DHT22;19087;51.062;3.754;2022-11-02T16:01:18;14.20;99.90
32698;DHT22;19087;51.062;3.754;2022-11-02T16:04:01;14.20;99.90
32698;DHT22;19087;51.062;3.754;2022-11-02T16:06:41;14.10;99.90
32698;DHT22;19087;51.062;3.754;2022-11-02T16:12:13;14.00;99.90
32698;DHT22;19087;51.062;3.754;2022-11-02T16:14:43;14.00;99.90
32698;DHT22;19087;51.062;3.754;2022-11-02T16:17:18;13.90;99.90
32698;DHT22;19087;51.062;3.754;2022-11-02T16:19:44;13.80;99.90
32698;DHT22;19087;51.062;3.754;2022-11-02T16:22:10;13.80;99.90
32698;DHT22;19087;51.062;3.754;2022-11-02T16:24:39;13.70;99.90
32698;DHT22;19087;51.062;3.754;2022-11-02T16:27:08;13.70;99.90
32698;DHT22;19087;51.062;3.754;2022-11-02T16:29:35;13.70;99.90
32698;DHT22;19087;51.062;3.754;2022-11-02T16:32:02;13.70;99.90
32698;DHT22;19087;51.062;3.754;2022-11-02T16:34:29;13.70;99.90
32698;DHT22;19087;51.062;3.754;2022-11-02T16:36:55;13.70;99.90
32698;DHT22;19087;51.062;3.754;2022-11-02T16:39:31;13.60;99.90
32698;DHT22;19087;51.062;3.754;2022-11-02T16:42:02;13.60;99.90
32698;DHT22;19087;51.062;3.754;2022-11-02T16:44:31;13.60;99.90
32698;DHT22;19087;51.062;3.754;2022-11-02T16:46:58;13.50;99.90
32698;DHT22;19087;51.062;3.754;2022-11-02T16:49:27;13.50;99.90
32698;DHT22;19087;51.062;3.754;2022-11-02T16:51:57;13.50;99.90
32698;DHT22;19087;51.062;3.754;2022-11-02T16:56:51;13.40;99.90
32698;DHT22;19087;51.062;3.754;2022-11-02T16:59:17;13.30;99.90
32698;DHT22;19087;51.062;3.754;2022-11-02T17:01:43;13.30;99.90
32698;DHT22;19087;51.062;3.754;2022-11-02T17:04:13;13.30;99.90
32698;DHT22;19087;51.062;3.754;2022-11-02T17:06:40;13.30;99.90
32698;DHT22;19087;51.062;3.754;2022-11-02T17:09:14;13.30;99.90
32698;DHT22;19087;51.062;3.754;2022-11-02T17:11:41;13.30;99.90
32698;DHT22;19087;51.062;3.754;2022-11-02T17:14:08;13.30;99.90
32698;DHT22;19087;51.062;3.754;2022-11-02T17:16:35;13.30;99.90
32698;DHT22;19087;51.062;3.754;2022-11-02T17:19:03;13.40;99.90
32698;DHT22;19087;51.062;3.754;2022-11-02T17:21:29;13.20;99.90
32698;DHT22;19087;51.062;3.754;2022-11-02T17:23:55;13.20;99.90
32698;DHT22;19087;51.062;3.754;2022-11-02T17:28:52;13.20;99.90
32698;DHT22;19087;51.062;3.754;2022-11-02T17:31:28;13.20;99.90
32698;DHT22;19087;51.062;3.754;2022-11-02T17:33:55;13.10;99.90
32698;DHT22;19087;51.062;3.754;2022-11-02T17:36:22;13.10;99.90
32698;DHT22;19087;51.062;3.754;2022-11-02T17:38:48;13.10;99.90
32698;DHT22;19087;51.062;3.754;2022-11-02T17:41:15;13.10;99.90
32698;DHT22;19087;51.062;3.754;2022-11-02T17:44:00;13.10;99.90
32698;DHT22;19087;51.062;3.754;2022-11-02T17:46:35;13.10;99.90
32698;DHT22;19087;51.062;3.754;2022-11-02T17:49:00;13.10;99.90
32698;DHT22;19087;51.062;3.754;2022-11-02T17:51:26;13.10;99.90
32698;DHT22;19087;51.062;3.754;2022-11-02T17:53:51;13.10;99.90
32698;DHT22;19087;51.062;3.754;2022-11-02T17:56:17;13.00;99.90
32698;DHT22;19087;51.062;3.754;2022-11-02T17:58:42;13.10;99.90
32698;DHT22;19087;51.062;3.754;2022-11-02T18:01:10;13.00;99.90
32698;DHT22;19087;51.062;3.754;2022-11-02T18:03:36;13.00;99.90
32698;DHT22;19087;51.062;3.754;2022-11-02T18:06:02;13.00;99.90
32698;DHT22;19087;51.062;3.754;2022-11-02T18:08:27;13.00;99.90
32698;DHT22;19087;51.062;3.754;2022-11-02T18:10:53;13.20;99.90
32698;DHT22;19087;51.062;3.754;2022-11-02T18:13:20;13.00;99.90
32698;DHT22;19087;51.062;3.754;2022-11-02T18:15:46;13.10;99.90
32698;DHT22;19087;51.062;3.754;2022-11-02T18:18:12;13.10;99.90
32698;DHT22;19087;51.062;3.754;2022-11-02T18:20:37;13.10;99.90
32698;DHT22;19087;51.062;3.754;2022-11-02T18:23:04;13.10;99.90